createdAt,value
2022-09-12T00:01:50.962Z,10.69
2022-09-12T00:04:17.711Z,10.73
2022-09-12T00:06:44.363Z,10.54
2022-09-12T00:09:14.444Z,10.47
2022-09-12T00:11:44.506Z,10.53
2022-09-12T00:14:18.401Z,10.57
2022-09-12T00:16:45.388Z,10.65
2022-09-12T00:19:12.922Z,10.76
2022-09-12T00:21:41.442Z,10.68
2022-09-12T00:24:09.593Z,10.60
2022-09-12T00:26:36.711Z,10.56
2022-09-12T00:29:03.687Z,10.45
2022-09-12T00:31:30.335Z,10.31
2022-09-12T00:34:00.603Z,10.28
2022-09-12T00:36:28.782Z,10.32
2022-09-12T00:38:55.457Z,10.37
2022-09-12T00:41:27.458Z,10.42
2022-09-12T00:43:59.091Z,10.44
2022-09-12T00:46:43.855Z,10.29
2022-09-12T00:49:24.825Z,10.22
2022-09-12T00:52:28.092Z,10.17
2022-09-12T00:55:15.215Z,10.18
2022-09-12T00:57:50.062Z,10.03
2022-09-12T01:00:23.089Z,10.10
2022-09-12T01:02:56.574Z,10.06
2022-09-12T01:05:26.855Z,10.00
2022-09-12T01:07:56.186Z,9.93
2022-09-12T01:10:24.489Z,9.87
2022-09-12T01:12:51.586Z,9.97
2022-09-12T01:15:18.267Z,10.09
2022-09-12T01:18:12.591Z,10.10
2022-09-12T01:21:11.409Z,10.11
2022-09-12T01:24:11.486Z,10.15
2022-09-12T01:27:23.258Z,9.97
2022-09-12T01:30:07.075Z,9.84
2022-09-12T01:32:55.875Z,9.87
2022-09-12T01:35:58.447Z,9.91
2022-09-12T01:38:34.437Z,9.99
2022-09-12T01:41:31.739Z,9.92
2022-09-12T01:44:25.672Z,9.94
2022-09-12T01:47:08.312Z,9.88
2022-09-12T01:50:03.225Z,9.89
2022-09-12T01:52:55.843Z,9.74
2022-09-12T01:55:51.296Z,9.62
2022-09-12T01:58:44.679Z,9.60
2022-09-12T02:01:20.143Z,9.70
2022-09-12T02:03:56.000Z,9.64
2022-09-12T02:06:37.257Z,9.58
2022-09-12T02:09:12.868Z,9.61
2022-09-12T02:11:44.783Z,9.52
2022-09-12T02:14:25.749Z,9.56
2022-09-12T02:17:12.023Z,9.60
2022-09-12T02:19:49.253Z,9.53
2022-09-12T02:22:21.573Z,9.51
2022-09-12T02:24:54.562Z,9.58
2022-09-12T02:27:30.386Z,9.62
2022-09-12T02:29:56.940Z,9.53
2022-09-12T02:32:44.850Z,9.47
2022-09-12T02:35:31.072Z,9.50
2022-09-12T02:38:12.017Z,9.43
2022-09-12T02:40:38.842Z,9.40
2022-09-12T02:43:07.176Z,9.44
2022-09-12T02:45:35.953Z,9.53
2022-09-12T02:48:21.151Z,9.49
2022-09-12T02:50:47.976Z,9.58
2022-09-12T02:53:15.547Z,9.65
2022-09-12T02:55:43.111Z,9.65
2022-09-12T02:58:17.959Z,9.57
2022-09-12T03:01:26.410Z,9.47
2022-09-12T03:03:58.657Z,9.36
2022-09-12T03:06:48.844Z,9.31
2022-09-12T03:09:46.984Z,9.25
2022-09-12T03:13:00.907Z,9.25
2022-09-12T03:15:54.755Z,9.28
2022-09-12T03:18:48.946Z,9.24
2022-09-12T03:21:32.298Z,9.15
2022-09-12T03:24:32.895Z,9.09
2022-09-12T03:27:17.067Z,9.05
2022-09-12T03:29:47.933Z,9.08
2022-09-12T03:32:15.300Z,9.21
2022-09-12T03:34:41.742Z,9.24
2022-09-12T03:37:08.175Z,9.17
2022-09-12T03:39:34.600Z,9.13
2022-09-12T03:42:01.039Z,9.13
2022-09-12T03:44:27.559Z,9.17
2022-09-12T03:46:54.019Z,9.15
2022-09-12T03:49:20.468Z,9.08
2022-09-12T03:51:46.894Z,9.06
2022-09-12T03:54:13.428Z,9.08
2022-09-12T03:56:41.112Z,9.08
2022-09-12T03:59:08.135Z,8.99
2022-09-12T04:01:35.381Z,8.97
2022-09-12T04:04:02.060Z,8.98
2022-09-12T04:06:28.721Z,9.07
2022-09-12T04:08:55.746Z,9.19
2022-09-12T04:11:23.598Z,9.29
2022-09-12T04:13:50.426Z,9.26
2022-09-12T04:16:18.449Z,9.29
2022-09-12T04:18:46.261Z,9.35
2022-09-12T04:21:16.979Z,9.38
2022-09-12T04:23:44.143Z,9.46
2022-09-12T04:26:13.543Z,9.43
2022-09-12T04:28:41.530Z,9.24
2022-09-12T04:31:20.618Z,9.19
2022-09-12T04:33:47.286Z,9.25
2022-09-12T04:36:17.009Z,9.29
2022-09-12T04:38:45.810Z,9.29
2022-09-12T04:41:14.869Z,9.23
2022-09-12T04:43:42.362Z,9.27
2022-09-12T04:46:13.285Z,9.26
2022-09-12T04:48:39.759Z,9.09
2022-09-12T04:51:29.692Z,8.98
2022-09-12T04:54:07.258Z,9.08
2022-09-12T04:56:38.044Z,9.10
2022-09-12T04:59:04.785Z,9.08
2022-09-12T05:01:31.656Z,9.12
2022-09-12T05:03:59.907Z,9.17
2022-09-12T05:06:30.683Z,9.17
2022-09-12T05:09:00.111Z,9.15
2022-09-12T05:11:59.710Z,9.14
2022-09-12T05:14:17.132Z,9.11
2022-09-12T05:16:47.257Z,9.08
2022-09-12T05:19:15.833Z,9.10
2022-09-12T05:21:42.264Z,9.06
2022-09-12T05:24:11.338Z,9.02
2022-09-12T05:26:38.242Z,9.06
2022-09-12T05:29:06.037Z,9.06
2022-09-12T05:31:32.894Z,9.01
2022-09-12T05:33:59.341Z,9.08
2022-09-12T05:36:29.201Z,9.14
2022-09-12T05:38:56.897Z,9.13
2022-09-12T05:41:29.281Z,9.18
2022-09-12T05:43:58.853Z,9.25
2022-09-12T05:46:28.839Z,9.25
2022-09-12T05:48:58.255Z,9.25
2022-09-12T05:51:28.637Z,9.24
2022-09-12T05:53:59.144Z,9.24
2022-09-12T05:56:29.072Z,9.23
2022-09-12T05:59:02.865Z,9.24
2022-09-12T06:01:32.262Z,9.25
2022-09-12T06:04:01.898Z,9.29
2022-09-12T06:06:30.982Z,9.36
2022-09-12T06:09:01.069Z,9.46
2022-09-12T06:11:31.822Z,9.50
2022-09-12T06:13:59.956Z,9.54
2022-09-12T06:16:33.563Z,9.56
2022-09-12T06:19:07.010Z,9.62
2022-09-12T06:21:38.772Z,9.70
2022-09-12T06:24:06.576Z,9.81
2022-09-12T06:26:33.388Z,9.91
2022-09-12T06:29:01.398Z,9.96
2022-09-12T06:31:31.904Z,10.00
2022-09-12T06:34:03.875Z,10.02
2022-09-12T06:36:36.336Z,10.08
2022-09-12T06:39:10.981Z,10.13
2022-09-12T06:41:44.010Z,10.20
2022-09-12T06:44:19.472Z,10.27
2022-09-12T06:46:49.648Z,10.31
2022-09-12T06:49:17.459Z,10.42
2022-09-12T06:51:44.360Z,10.55
2022-09-12T06:54:16.876Z,10.65
2022-09-12T06:56:44.555Z,10.78
2022-09-12T06:59:11.048Z,10.80
2022-09-12T07:01:37.647Z,10.90
2022-09-12T07:04:04.938Z,11.01
2022-09-12T07:06:38.946Z,11.08
2022-09-12T07:09:09.729Z,11.23
2022-09-12T07:11:39.614Z,11.35
2022-09-12T07:14:09.368Z,11.50
2022-09-12T07:16:36.879Z,11.61
2022-09-12T07:19:07.843Z,11.76
2022-09-12T07:21:40.301Z,11.93
2022-09-12T07:24:09.930Z,12.15
2022-09-12T07:26:37.566Z,12.37
2022-09-12T07:29:25.535Z,12.53
2022-09-12T07:31:51.666Z,12.70
2022-09-12T07:34:18.269Z,12.89
2022-09-12T07:36:44.688Z,13.07
2022-09-12T07:39:11.178Z,13.25
2022-09-12T07:41:37.939Z,13.42
2022-09-12T07:44:06.577Z,13.56
2022-09-12T07:46:33.466Z,13.74
2022-09-12T07:49:01.646Z,13.93
2022-09-12T07:51:30.538Z,14.05
2022-09-12T07:53:57.951Z,14.17
2022-09-12T07:56:30.142Z,14.30
2022-09-12T07:58:57.858Z,14.40
2022-09-12T08:01:24.798Z,14.53
2022-09-12T08:03:57.862Z,14.65
2022-09-12T08:06:26.819Z,14.79
2022-09-12T08:08:56.640Z,14.90
2022-09-12T08:11:26.295Z,15.00
2022-09-12T08:13:56.164Z,15.13
2022-09-12T08:16:27.235Z,15.29
2022-09-12T08:18:54.155Z,15.44
2022-09-12T08:21:27.291Z,15.60
2022-09-12T08:24:00.832Z,15.69
2022-09-12T08:26:28.538Z,15.82
2022-09-12T08:28:55.264Z,15.92
2022-09-12T08:31:25.392Z,15.96
2022-09-12T08:33:55.789Z,16.09
2022-09-12T08:36:27.153Z,16.19
2022-09-12T08:39:04.054Z,16.27
2022-09-12T08:41:40.799Z,16.33
2022-09-12T08:44:22.760Z,16.41
2022-09-12T08:47:10.725Z,16.51
2022-09-12T08:50:08.116Z,16.57
2022-09-12T08:52:58.705Z,16.39
2022-09-12T08:55:40.062Z,16.57
2022-09-12T08:58:22.659Z,16.75
2022-09-12T09:01:10.580Z,16.84
2022-09-12T09:04:20.706Z,16.96
2022-09-12T09:07:17.586Z,17.09
2022-09-12T09:10:17.999Z,17.14
2022-09-12T09:13:12.192Z,17.18
2022-09-12T09:16:07.317Z,17.19
2022-09-12T09:18:36.462Z,17.29
2022-09-12T09:21:26.596Z,17.36
2022-09-12T09:24:19.142Z,17.41
2022-09-12T09:26:58.172Z,17.50
2022-09-12T09:29:35.424Z,17.57
2022-09-12T09:32:13.126Z,17.68
2022-09-12T09:34:40.031Z,17.71
2022-09-12T09:37:14.464Z,17.72
2022-09-12T09:40:08.721Z,17.74
2022-09-12T09:43:23.575Z,17.88
2022-09-12T09:45:52.510Z,17.94
2022-09-12T09:48:27.479Z,17.94
2022-09-12T09:50:54.035Z,17.96
2022-09-12T09:53:56.420Z,17.98
2022-09-12T09:56:34.163Z,18.04
2022-09-12T09:59:26.961Z,18.15
2022-09-12T10:02:13.027Z,18.24
2022-09-12T10:04:52.455Z,18.35
2022-09-12T10:07:21.714Z,18.46
2022-09-12T10:10:15.446Z,18.52
2022-09-12T10:12:43.015Z,18.59
2022-09-12T10:15:29.466Z,18.58
2022-09-12T10:17:56.539Z,18.58
2022-09-12T10:20:46.622Z,18.57
2022-09-12T10:23:19.054Z,18.64
2022-09-12T10:25:53.435Z,18.75
2022-09-12T10:28:29.671Z,18.87
2022-09-12T10:30:56.570Z,18.81
2022-09-12T10:33:26.396Z,19.05
2022-09-12T10:35:55.106Z,19.28
2022-09-12T10:38:27.246Z,19.41
2022-09-12T10:41:06.454Z,19.50
2022-09-12T10:43:33.037Z,19.51
2022-09-12T10:46:19.729Z,19.52
2022-09-12T10:48:47.957Z,19.33
2022-09-12T10:51:23.517Z,19.52
2022-09-12T10:53:53.417Z,19.65
2022-09-12T10:56:43.773Z,19.75
2022-09-12T10:59:45.179Z,19.94
2022-09-12T11:02:29.983Z,20.00
2022-09-12T11:05:09.499Z,20.02
2022-09-12T11:07:48.257Z,19.96
2022-09-12T11:10:56.907Z,19.89
2022-09-12T11:14:09.604Z,19.73
2022-09-12T11:16:59.223Z,19.72
2022-09-12T11:19:52.970Z,19.74
2022-09-12T11:22:43.215Z,19.82
2022-09-12T11:25:39.545Z,19.86
2022-09-12T11:28:11.736Z,19.87
2022-09-12T11:31:19.544Z,19.88
2022-09-12T11:33:56.332Z,19.99
2022-09-12T11:36:38.071Z,20.04
2022-09-12T11:39:16.048Z,20.07
2022-09-12T11:41:54.639Z,20.10
2022-09-12T11:44:33.008Z,20.16
2022-09-12T11:47:06.646Z,20.26
2022-09-12T11:49:43.210Z,20.31
2022-09-12T11:52:23.709Z,20.31
2022-09-12T11:55:18.301Z,20.35
2022-09-12T11:57:58.475Z,20.41
2022-09-12T12:00:37.000Z,20.41
2022-09-12T12:03:37.007Z,20.35
2022-09-12T12:06:32.383Z,20.32
2022-09-12T12:08:59.443Z,20.38
2022-09-12T12:11:47.975Z,20.38
2022-09-12T12:14:22.458Z,20.41
2022-09-12T12:16:49.944Z,20.34
2022-09-12T12:19:16.289Z,20.33
2022-09-12T12:21:51.302Z,20.35
2022-09-12T12:25:11.788Z,20.41
2022-09-12T12:27:44.136Z,20.43
2022-09-12T12:30:29.410Z,20.51
2022-09-12T12:33:10.781Z,20.56
2022-09-12T12:35:46.753Z,20.55
2022-09-12T12:38:37.027Z,20.55
2022-09-12T12:41:18.783Z,20.57
2022-09-12T12:43:56.045Z,20.59
2022-09-12T12:46:27.427Z,20.68
2022-09-12T12:48:56.047Z,20.71
2022-09-12T12:51:34.845Z,20.71
2022-09-12T12:54:13.020Z,20.67
2022-09-12T12:56:42.409Z,20.69
2022-09-12T12:59:23.555Z,20.70
2022-09-12T13:01:57.071Z,20.71
2022-09-12T13:04:32.327Z,20.68
2022-09-12T13:07:07.909Z,20.74
2022-09-12T13:09:45.178Z,20.72
2022-09-12T13:12:23.423Z,20.74
2022-09-12T13:14:59.306Z,20.74
2022-09-12T13:17:39.655Z,20.71
2022-09-12T13:20:31.513Z,20.72
2022-09-12T13:22:58.562Z,20.80
2022-09-12T13:25:36.870Z,20.81
2022-09-12T13:28:06.223Z,20.76
2022-09-12T13:30:37.332Z,20.81
2022-09-12T13:33:18.289Z,20.77
2022-09-12T13:36:42.083Z,20.73
2022-09-12T13:39:34.252Z,20.71
2022-09-12T13:42:34.374Z,20.75
2022-09-12T13:45:24.731Z,20.70
2022-09-12T13:48:01.835Z,20.69
2022-09-12T13:50:37.625Z,20.75
2022-09-12T13:53:12.998Z,20.75
2022-09-12T13:55:43.050Z,20.77
2022-09-12T13:58:29.973Z,20.75
2022-09-12T14:01:13.770Z,20.66
2022-09-12T14:04:15.263Z,20.69
2022-09-12T14:06:50.332Z,20.68
2022-09-12T14:09:25.966Z,20.67
2022-09-12T14:11:53.635Z,20.69
2022-09-12T14:14:32.666Z,20.71
2022-09-12T14:17:00.517Z,20.76
2022-09-12T14:19:29.071Z,20.80
2022-09-12T14:21:57.561Z,20.75
2022-09-12T14:24:24.812Z,20.73
2022-09-12T14:26:56.686Z,20.81
2022-09-12T14:29:25.191Z,20.89
2022-09-12T14:32:05.014Z,20.91
2022-09-12T14:34:31.563Z,20.98
2022-09-12T14:36:59.199Z,21.01
2022-09-12T14:39:41.379Z,20.97
2022-09-12T14:42:22.413Z,20.98
2022-09-12T14:45:05.907Z,20.99
2022-09-12T14:47:44.280Z,21.02
2022-09-12T14:50:22.664Z,20.99
2022-09-12T14:53:07.968Z,20.87
2022-09-12T14:55:45.139Z,20.89
2022-09-12T14:58:16.463Z,20.88
2022-09-12T15:01:01.728Z,20.86
2022-09-12T15:03:49.425Z,20.89
2022-09-12T15:06:31.147Z,20.86
2022-09-12T15:09:13.372Z,20.92
2022-09-12T15:11:39.810Z,20.93
2022-09-12T15:14:13.834Z,20.94
2022-09-12T15:16:41.516Z,20.89
2022-09-12T15:19:07.979Z,20.89
2022-09-12T15:21:34.625Z,20.88
2022-09-12T15:24:01.087Z,20.89
2022-09-12T15:26:30.467Z,20.93
2022-09-12T15:28:56.956Z,20.98
2022-09-12T15:31:32.401Z,20.97
2022-09-12T15:34:02.374Z,21.00
2022-09-12T15:36:29.467Z,20.99
2022-09-12T15:38:56.340Z,20.90
2022-09-12T15:41:33.669Z,20.89
2022-09-12T15:44:01.067Z,20.91
2022-09-12T15:46:27.579Z,20.96
2022-09-12T15:48:54.029Z,20.96
2022-09-12T15:51:22.275Z,20.95
2022-09-12T15:53:51.009Z,20.96
2022-09-12T15:56:20.944Z,20.98
2022-09-12T15:58:58.182Z,21.01
2022-09-12T16:01:25.809Z,21.02
2022-09-12T16:03:52.395Z,20.98
2022-09-12T16:06:18.858Z,20.95
2022-09-12T16:08:46.137Z,20.92
2022-09-12T16:11:21.211Z,20.81
2022-09-12T16:13:48.455Z,20.80
2022-09-12T16:16:14.958Z,20.78
2022-09-12T16:18:42.565Z,20.77
2022-09-12T16:21:14.694Z,20.71
2022-09-12T16:23:47.177Z,20.68
2022-09-12T16:26:14.517Z,20.68
2022-09-12T16:28:41.279Z,20.66
2022-09-12T16:31:11.619Z,20.62
2022-09-12T16:33:39.599Z,20.58
2022-09-12T16:36:09.990Z,20.52
2022-09-12T16:38:51.538Z,20.38
2022-09-12T16:41:22.121Z,20.31
2022-09-12T16:43:48.742Z,20.29
2022-09-12T16:46:19.862Z,20.24
2022-09-12T16:48:52.383Z,20.19
2022-09-12T16:51:23.664Z,20.11
2022-09-12T16:53:50.851Z,20.04
2022-09-12T16:56:17.927Z,19.96
2022-09-12T16:58:45.478Z,19.90
2022-09-12T17:01:25.345Z,19.86
2022-09-12T17:03:57.709Z,19.83
2022-09-12T17:06:26.146Z,19.80
2022-09-12T17:08:55.148Z,19.72
2022-09-12T17:11:31.782Z,19.62
2022-09-12T17:14:04.972Z,19.58
2022-09-12T17:16:35.980Z,19.52
2022-09-12T17:19:04.021Z,19.44
2022-09-12T17:21:30.595Z,19.36
2022-09-12T17:23:57.206Z,19.31
2022-09-12T17:26:23.666Z,19.25
2022-09-12T17:28:50.463Z,19.20
2022-09-12T17:31:17.180Z,19.17
2022-09-12T17:33:44.018Z,19.07
2022-09-12T17:36:15.272Z,18.92
2022-09-12T17:38:44.702Z,18.78
2022-09-12T17:41:19.123Z,18.61
2022-09-12T17:43:50.155Z,18.59
2022-09-12T17:46:18.477Z,18.54
2022-09-12T17:48:45.559Z,18.44
2022-09-12T17:51:15.040Z,18.22
2022-09-12T17:53:42.894Z,18.12
2022-09-12T17:56:11.344Z,18.01
2022-09-12T17:58:38.181Z,17.92
2022-09-12T18:01:30.292Z,17.83
2022-09-12T18:04:00.469Z,17.72
2022-09-12T18:06:28.451Z,17.63
2022-09-12T18:08:55.190Z,17.54
2022-09-12T18:11:21.750Z,17.54
2022-09-12T18:13:48.464Z,17.49
2022-09-12T18:16:16.424Z,17.34
2022-09-12T18:18:43.257Z,17.21
2022-09-12T18:21:11.777Z,17.11
2022-09-12T18:23:38.944Z,17.10
2022-09-12T18:26:09.421Z,17.03
2022-09-12T18:28:39.713Z,16.94
2022-09-12T18:31:16.432Z,16.82
2022-09-12T18:33:43.256Z,16.74
2022-09-12T18:36:13.154Z,16.62
2022-09-12T18:38:41.458Z,16.51
2022-09-12T18:41:14.784Z,16.34
2022-09-12T18:43:41.397Z,16.19
2022-09-12T18:46:12.492Z,16.14
2022-09-12T18:48:39.338Z,16.03
2022-09-12T18:51:14.618Z,15.91
2022-09-12T18:53:42.576Z,15.82
2022-09-12T18:56:14.145Z,15.69
2022-09-12T18:58:43.731Z,15.59
2022-09-12T19:01:17.513Z,15.49
2022-09-12T19:03:45.483Z,15.43
2022-09-12T19:06:19.620Z,15.34
2022-09-12T19:08:48.997Z,15.30
2022-09-12T19:11:16.169Z,15.26
2022-09-12T19:13:45.879Z,15.22
2022-09-12T19:16:20.176Z,15.13
2022-09-12T19:18:49.798Z,15.19
2022-09-12T19:21:24.311Z,15.29
2022-09-12T19:23:53.217Z,15.26
2022-09-12T19:26:21.121Z,15.21
2022-09-12T19:28:48.437Z,15.16
2022-09-12T19:31:18.845Z,15.08
2022-09-12T19:33:46.292Z,15.12
2022-09-12T19:36:41.203Z,15.03
2022-09-12T19:39:04.761Z,14.87
2022-09-12T19:41:31.448Z,14.78
2022-09-12T19:43:58.746Z,14.72
2022-09-12T19:46:26.512Z,14.63
2022-09-12T19:48:54.170Z,14.50
2022-09-12T19:51:23.826Z,14.42
2022-09-12T19:53:51.247Z,14.38
2022-09-12T19:56:17.767Z,14.30
2022-09-12T19:58:49.062Z,14.31
2022-09-12T20:01:27.614Z,14.44
2022-09-12T20:03:58.104Z,14.47
2022-09-12T20:06:26.349Z,14.49
2022-09-12T20:08:53.815Z,14.51
2022-09-12T20:11:23.727Z,14.48
2022-09-12T20:13:50.974Z,14.43
2022-09-12T20:16:29.230Z,14.31
2022-09-12T20:19:00.387Z,14.17
2022-09-12T20:21:34.103Z,14.12
2022-09-12T20:24:07.413Z,14.02
2022-09-12T20:26:35.156Z,14.06
2022-09-12T20:29:03.153Z,14.13
2022-09-12T20:31:30.372Z,14.13
2022-09-12T20:33:57.933Z,14.07
2022-09-12T20:36:24.512Z,14.04
2022-09-12T20:38:56.660Z,13.98
2022-09-12T20:41:24.339Z,13.96
2022-09-12T20:43:55.783Z,14.03
2022-09-12T20:46:25.563Z,14.01
2022-09-12T20:48:52.998Z,14.04
2022-09-12T20:51:21.586Z,14.05
2022-09-12T20:53:48.478Z,14.04
2022-09-12T20:56:15.263Z,13.97
2022-09-12T20:58:44.316Z,13.95
2022-09-12T21:01:13.744Z,13.96
2022-09-12T21:03:42.788Z,13.91
2022-09-12T21:06:12.628Z,13.80
2022-09-12T21:08:39.270Z,13.72
2022-09-12T21:11:06.500Z,13.67
2022-09-12T21:13:33.748Z,13.53
2022-09-12T21:16:11.523Z,13.40
2022-09-12T21:18:39.031Z,13.36
2022-09-12T21:21:05.883Z,13.29
2022-09-12T21:23:34.392Z,13.21
2022-09-12T21:26:02.368Z,13.22
2022-09-12T21:28:29.166Z,13.31
2022-09-12T21:30:55.985Z,13.45
2022-09-12T21:33:23.138Z,13.52
2022-09-12T21:35:49.858Z,13.42
2022-09-12T21:38:17.990Z,13.31
2022-09-12T21:40:45.143Z,13.22
2022-09-12T21:43:12.960Z,13.09
2022-09-12T21:45:40.395Z,13.01
2022-09-12T21:48:06.923Z,12.97
2022-09-12T21:50:33.392Z,12.96
2022-09-12T21:52:59.832Z,12.93
2022-09-12T21:55:27.231Z,12.92
2022-09-12T21:57:54.943Z,12.86
2022-09-12T22:00:22.463Z,12.84
2022-09-12T22:02:49.148Z,12.80
2022-09-12T22:05:17.118Z,12.76
2022-09-12T22:07:43.823Z,12.73
2022-09-12T22:10:10.830Z,12.64
2022-09-12T22:12:37.379Z,12.62
2022-09-12T22:15:22.880Z,12.63
2022-09-12T22:17:51.320Z,12.61
2022-09-12T22:20:17.843Z,12.58
2022-09-12T22:23:02.985Z,12.54
2022-09-12T22:25:29.650Z,12.49
2022-09-12T22:27:56.279Z,12.46
2022-09-12T22:30:23.373Z,12.52
2022-09-12T22:32:51.345Z,12.52
2022-09-12T22:35:18.448Z,12.46
2022-09-12T22:37:46.989Z,12.46
2022-09-12T22:40:13.616Z,12.44
2022-09-12T22:42:40.395Z,12.40
2022-09-12T22:45:07.924Z,12.34
2022-09-12T22:47:34.412Z,12.33
2022-09-12T22:50:00.943Z,12.35
2022-09-12T22:52:27.386Z,12.44
2022-09-12T22:54:53.805Z,12.55
2022-09-12T22:57:20.323Z,12.63
2022-09-12T22:59:46.769Z,12.58
2022-09-12T23:02:13.280Z,12.52
2022-09-12T23:04:39.916Z,12.47
2022-09-12T23:07:06.531Z,12.41
2022-09-12T23:09:35.358Z,12.49
2022-09-12T23:12:02.764Z,12.58
2022-09-12T23:14:29.332Z,12.58
2022-09-12T23:16:55.831Z,12.50
2022-09-12T23:19:22.264Z,12.45
2022-09-12T23:21:48.691Z,12.40
2022-09-12T23:24:15.122Z,12.34
2022-09-12T23:26:41.562Z,12.22
2022-09-12T23:29:08.914Z,12.11
2022-09-12T23:31:35.470Z,12.05
2022-09-12T23:34:05.850Z,12.09
2022-09-12T23:36:33.474Z,12.07
2022-09-12T23:39:00.476Z,12.06
2022-09-12T23:41:27.244Z,12.03
2022-09-12T23:43:53.865Z,12.05
2022-09-12T23:46:21.578Z,12.04
2022-09-12T23:48:49.052Z,11.97
2022-09-12T23:51:16.058Z,12.02
2022-09-12T23:53:42.498Z,12.00
2022-09-12T23:56:10.154Z,11.93
2022-09-12T23:58:37.123Z,11.84
